sensor_id;sensor_type;location;lat;lon;timestamp;P1;durP1;ratioP1;P2;durP2;ratioP2
17658;SDS011;8948;51.534;8.262;2022-07-06T00:00:32;6.03;;;1.50;;
17658;SDS011;8948;51.534;8.262;2022-07-06T00:05:32;4.82;;;1.85;;
17658;SDS011;8948;51.534;8.262;2022-07-06T00:10:33;4.70;;;1.70;;
17658;SDS011;8948;51.534;8.262;2022-07-06T00:15:34;7.05;;;2.15;;
17658;SDS011;8948;51.534;8.262;2022-07-06T00:20:34;8.18;;;1.80;;
17658;SDS011;8948;51.534;8.262;2022-07-06T00:25:35;3.58;;;1.80;;
17658;SDS011;8948;51.534;8.262;2022-07-06T00:30:35;5.63;;;2.10;;
17658;SDS011;8948;51.534;8.262;2022-07-06T00:35:36;6.05;;;1.75;;
17658;SDS011;8948;51.534;8.262;2022-07-06T00:40:37;4.03;;;1.77;;
17658;SDS011;8948;51.534;8.262;2022-07-06T00:45:37;4.32;;;2.05;;
17658;SDS011;8948;51.534;8.262;2022-07-06T00:50:38;7.50;;;1.83;;
17658;SDS011;8948;51.534;8.262;2022-07-06T00:55:39;4.38;;;2.08;;
17658;SDS011;8948;51.534;8.262;2022-07-06T01:00:40;7.32;;;1.73;;
17658;SDS011;8948;51.534;8.262;2022-07-06T01:05:44;6.53;;;2.10;;
17658;SDS011;8948;51.534;8.262;2022-07-06T01:10:45;5.03;;;2.10;;
17658;SDS011;8948;51.534;8.262;2022-07-06T01:15:46;4.72;;;2.28;;
17658;SDS011;8948;51.534;8.262;2022-07-06T01:20:46;8.00;;;2.30;;
17658;SDS011;8948;51.534;8.262;2022-07-06T01:25:47;4.10;;;1.92;;
17658;SDS011;8948;51.534;8.262;2022-07-06T01:30:47;5.38;;;1.92;;
17658;SDS011;8948;51.534;8.262;2022-07-06T01:35:48;5.82;;;2.35;;
17658;SDS011;8948;51.534;8.262;2022-07-06T01:40:49;3.88;;;2.17;;
17658;SDS011;8948;51.534;8.262;2022-07-06T01:45:50;9.40;;;2.40;;
17658;SDS011;8948;51.534;8.262;2022-07-06T01:50:51;4.65;;;2.10;;
17658;SDS011;8948;51.534;8.262;2022-07-06T01:55:51;5.22;;;2.05;;
17658;SDS011;8948;51.534;8.262;2022-07-06T02:00:52;8.52;;;2.15;;
17658;SDS011;8948;51.534;8.262;2022-07-06T02:05:52;7.25;;;2.13;;
17658;SDS011;8948;51.534;8.262;2022-07-06T02:10:53;4.00;;;2.05;;
17658;SDS011;8948;51.534;8.262;2022-07-06T02:15:53;4.38;;;2.17;;
17658;SDS011;8948;51.534;8.262;2022-07-06T02:20:54;4.03;;;1.92;;
17658;SDS011;8948;51.534;8.262;2022-07-06T02:25:55;7.97;;;2.20;;
17658;SDS011;8948;51.534;8.262;2022-07-06T02:30:55;10.38;;;2.00;;
17658;SDS011;8948;51.534;8.262;2022-07-06T02:35:56;10.00;;;2.15;;
17658;SDS011;8948;51.534;8.262;2022-07-06T02:40:56;6.00;;;2.20;;
17658;SDS011;8948;51.534;8.262;2022-07-06T02:45:57;6.10;;;2.40;;
17658;SDS011;8948;51.534;8.262;2022-07-06T02:50:58;4.78;;;2.40;;
17658;SDS011;8948;51.534;8.262;2022-07-06T02:55:58;5.63;;;1.95;;
17658;SDS011;8948;51.534;8.262;2022-07-06T03:00:59;6.72;;;2.40;;
17658;SDS011;8948;51.534;8.262;2022-07-06T03:05:59;8.88;;;2.03;;
17658;SDS011;8948;51.534;8.262;2022-07-06T03:11:00;5.93;;;2.00;;
17658;SDS011;8948;51.534;8.262;2022-07-06T03:16:01;20.90;;;2.00;;
17658;SDS011;8948;51.534;8.262;2022-07-06T03:21:02;10.35;;;2.55;;
17658;SDS011;8948;51.534;8.262;2022-07-06T03:26:03;2.78;;;1.55;;
17658;SDS011;8948;51.534;8.262;2022-07-06T03:31:04;4.95;;;2.22;;
17658;SDS011;8948;51.534;8.262;2022-07-06T03:36:04;7.95;;;2.40;;
17658;SDS011;8948;51.534;8.262;2022-07-06T03:41:05;6.78;;;2.10;;
17658;SDS011;8948;51.534;8.262;2022-07-06T03:46:06;4.25;;;2.35;;
17658;SDS011;8948;51.534;8.262;2022-07-06T03:51:06;4.45;;;2.13;;
17658;SDS011;8948;51.534;8.262;2022-07-06T03:56:07;9.70;;;2.03;;
17658;SDS011;8948;51.534;8.262;2022-07-06T04:01:27;3.90;;;1.90;;
17658;SDS011;8948;51.534;8.262;2022-07-06T04:06:27;8.45;;;2.20;;
17658;SDS011;8948;51.534;8.262;2022-07-06T04:11:28;6.25;;;1.90;;
17658;SDS011;8948;51.534;8.262;2022-07-06T04:16:29;5.07;;;2.20;;
17658;SDS011;8948;51.534;8.262;2022-07-06T04:21:30;8.88;;;2.63;;
17658;SDS011;8948;51.534;8.262;2022-07-06T04:26:30;8.98;;;3.20;;
17658;SDS011;8948;51.534;8.262;2022-07-06T04:31:31;8.88;;;2.80;;
17658;SDS011;8948;51.534;8.262;2022-07-06T04:36:31;5.72;;;2.85;;
17658;SDS011;8948;51.534;8.262;2022-07-06T04:41:32;7.68;;;2.95;;
17658;SDS011;8948;51.534;8.262;2022-07-06T04:46:33;12.88;;;3.55;;
17658;SDS011;8948;51.534;8.262;2022-07-06T04:51:33;5.65;;;2.78;;
17658;SDS011;8948;51.534;8.262;2022-07-06T04:56:34;9.13;;;2.85;;
17658;SDS011;8948;51.534;8.262;2022-07-06T05:01:34;6.47;;;2.33;;
17658;SDS011;8948;51.534;8.262;2022-07-06T05:06:35;10.27;;;3.20;;
17658;SDS011;8948;51.534;8.262;2022-07-06T05:11:35;15.00;;;3.55;;
17658;SDS011;8948;51.534;8.262;2022-07-06T05:16:37;6.22;;;2.67;;
17658;SDS011;8948;51.534;8.262;2022-07-06T05:21:38;11.43;;;3.17;;
17658;SDS011;8948;51.534;8.262;2022-07-06T05:26:38;8.15;;;2.88;;
17658;SDS011;8948;51.534;8.262;2022-07-06T05:31:39;5.15;;;2.85;;
17658;SDS011;8948;51.534;8.262;2022-07-06T05:36:39;11.23;;;2.88;;
17658;SDS011;8948;51.534;8.262;2022-07-06T05:41:40;7.30;;;3.20;;
17658;SDS011;8948;51.534;8.262;2022-07-06T05:46:40;8.82;;;3.20;;
17658;SDS011;8948;51.534;8.262;2022-07-06T05:51:41;6.82;;;3.08;;
17658;SDS011;8948;51.534;8.262;2022-07-06T05:56:42;10.88;;;2.70;;
17658;SDS011;8948;51.534;8.262;2022-07-06T06:01:42;7.10;;;3.03;;
17658;SDS011;8948;51.534;8.262;2022-07-06T06:06:43;7.40;;;2.35;;
17658;SDS011;8948;51.534;8.262;2022-07-06T06:11:43;5.65;;;2.40;;
17658;SDS011;8948;51.534;8.262;2022-07-06T06:16:44;6.90;;;2.60;;
17658;SDS011;8948;51.534;8.262;2022-07-06T06:21:45;7.95;;;2.28;;
17658;SDS011;8948;51.534;8.262;2022-07-06T06:26:46;7.18;;;2.10;;
17658;SDS011;8948;51.534;8.262;2022-07-06T06:31:46;8.60;;;2.42;;
17658;SDS011;8948;51.534;8.262;2022-07-06T06:36:47;5.47;;;2.20;;
17658;SDS011;8948;51.534;8.262;2022-07-06T06:41:47;12.00;;;2.30;;
17658;SDS011;8948;51.534;8.262;2022-07-06T06:46:51;3.78;;;1.70;;
17658;SDS011;8948;51.534;8.262;2022-07-06T06:51:52;7.32;;;1.80;;
17658;SDS011;8948;51.534;8.262;2022-07-06T06:56:52;9.23;;;2.25;;
17658;SDS011;8948;51.534;8.262;2022-07-06T07:01:53;8.20;;;1.95;;
17658;SDS011;8948;51.534;8.262;2022-07-06T07:06:53;4.97;;;1.48;;
17658;SDS011;8948;51.534;8.262;2022-07-06T07:11:54;8.27;;;1.80;;
17658;SDS011;8948;51.534;8.262;2022-07-06T07:16:55;5.55;;;1.65;;
17658;SDS011;8948;51.534;8.262;2022-07-06T07:21:55;5.22;;;1.48;;
17658;SDS011;8948;51.534;8.262;2022-07-06T07:26:56;8.57;;;2.10;;
17658;SDS011;8948;51.534;8.262;2022-07-06T07:31:57;4.90;;;1.50;;
17658;SDS011;8948;51.534;8.262;2022-07-06T07:36:57;4.88;;;1.77;;
17658;SDS011;8948;51.534;8.262;2022-07-06T07:41:58;6.88;;;1.60;;
17658;SDS011;8948;51.534;8.262;2022-07-06T07:46:58;7.45;;;1.80;;
17658;SDS011;8948;51.534;8.262;2022-07-06T07:51:59;6.20;;;1.63;;
17658;SDS011;8948;51.534;8.262;2022-07-06T07:56:59;4.18;;;1.33;;
17658;SDS011;8948;51.534;8.262;2022-07-06T08:02:00;9.25;;;1.83;;
17658;SDS011;8948;51.534;8.262;2022-07-06T08:07:01;4.63;;;1.52;;
17658;SDS011;8948;51.534;8.262;2022-07-06T08:12:01;5.95;;;1.98;;
17658;SDS011;8948;51.534;8.262;2022-07-06T08:17:02;10.35;;;1.60;;
17658;SDS011;8948;51.534;8.262;2022-07-06T08:22:03;4.95;;;1.80;;
17658;SDS011;8948;51.534;8.262;2022-07-06T08:27:06;7.07;;;1.92;;
17658;SDS011;8948;51.534;8.262;2022-07-06T08:32:07;4.03;;;1.40;;
17658;SDS011;8948;51.534;8.262;2022-07-06T08:37:08;9.65;;;1.90;;
17658;SDS011;8948;51.534;8.262;2022-07-06T08:42:08;5.07;;;1.63;;
17658;SDS011;8948;51.534;8.262;2022-07-06T08:47:10;5.53;;;1.38;;
17658;SDS011;8948;51.534;8.262;2022-07-06T08:52:12;7.63;;;1.58;;
17658;SDS011;8948;51.534;8.262;2022-07-06T08:57:13;7.03;;;1.30;;
17658;SDS011;8948;51.534;8.262;2022-07-06T09:02:15;8.27;;;1.70;;
17658;SDS011;8948;51.534;8.262;2022-07-06T09:07:15;5.40;;;1.13;;
17658;SDS011;8948;51.534;8.262;2022-07-06T09:12:17;8.77;;;1.50;;
17658;SDS011;8948;51.534;8.262;2022-07-06T09:17:18;5.18;;;1.27;;
17658;SDS011;8948;51.534;8.262;2022-07-06T09:22:25;7.30;;;1.60;;
17658;SDS011;8948;51.534;8.262;2022-07-06T09:27:26;6.25;;;1.83;;
17658;SDS011;8948;51.534;8.262;2022-07-06T09:32:27;7.32;;;1.80;;
17658;SDS011;8948;51.534;8.262;2022-07-06T09:37:28;2.58;;;1.23;;
17658;SDS011;8948;51.534;8.262;2022-07-06T09:42:29;8.70;;;1.40;;
17658;SDS011;8948;51.534;8.262;2022-07-06T09:47:32;6.50;;;1.85;;
17658;SDS011;8948;51.534;8.262;2022-07-06T09:52:36;7.35;;;1.50;;
17658;SDS011;8948;51.534;8.262;2022-07-06T09:57:37;5.75;;;1.50;;
17658;SDS011;8948;51.534;8.262;2022-07-06T10:02:38;4.20;;;1.70;;
17658;SDS011;8948;51.534;8.262;2022-07-06T10:07:39;6.55;;;1.35;;
17658;SDS011;8948;51.534;8.262;2022-07-06T10:12:42;6.57;;;1.60;;
17658;SDS011;8948;51.534;8.262;2022-07-06T10:17:45;3.88;;;1.30;;
17658;SDS011;8948;51.534;8.262;2022-07-06T10:22:47;8.43;;;1.40;;
17658;SDS011;8948;51.534;8.262;2022-07-06T10:27:49;6.03;;;1.58;;
17658;SDS011;8948;51.534;8.262;2022-07-06T10:32:51;4.03;;;1.23;;
17658;SDS011;8948;51.534;8.262;2022-07-06T10:38:05;3.78;;;1.05;;
17658;SDS011;8948;51.534;8.262;2022-07-06T10:43:08;4.13;;;1.08;;
17658;SDS011;8948;51.534;8.262;2022-07-06T10:53:14;6.90;;;1.65;;
17658;SDS011;8948;51.534;8.262;2022-07-06T11:03:49;1.77;;;1.05;;
17658;SDS011;8948;51.534;8.262;2022-07-06T11:08:57;2.63;;;1.23;;
17658;SDS011;8948;51.534;8.262;2022-07-06T11:14:01;6.70;;;1.60;;
17658;SDS011;8948;51.534;8.262;2022-07-06T11:19:06;7.15;;;1.08;;
17658;SDS011;8948;51.534;8.262;2022-07-06T11:24:15;8.43;;;1.27;;
17658;SDS011;8948;51.534;8.262;2022-07-06T11:29:18;8.27;;;1.20;;
17658;SDS011;8948;51.534;8.262;2022-07-06T11:34:25;3.42;;;1.08;;
17658;SDS011;8948;51.534;8.262;2022-07-06T11:39:32;1.92;;;0.90;;
17658;SDS011;8948;51.534;8.262;2022-07-06T11:44:34;4.43;;;1.17;;
17658;SDS011;8948;51.534;8.262;2022-07-06T11:49:36;5.95;;;1.02;;
17658;SDS011;8948;51.534;8.262;2022-07-06T11:54:38;4.00;;;1.05;;
17658;SDS011;8948;51.534;8.262;2022-07-06T11:59:41;9.95;;;1.33;;
17658;SDS011;8948;51.534;8.262;2022-07-06T12:04:43;4.10;;;1.00;;
17658;SDS011;8948;51.534;8.262;2022-07-06T12:09:45;3.60;;;1.00;;
17658;SDS011;8948;51.534;8.262;2022-07-06T12:14:47;7.07;;;1.10;;
17658;SDS011;8948;51.534;8.262;2022-07-06T12:19:52;5.93;;;1.25;;
17658;SDS011;8948;51.534;8.262;2022-07-06T12:24:54;9.60;;;1.25;;
17658;SDS011;8948;51.534;8.262;2022-07-06T12:30:07;5.00;;;1.05;;
17658;SDS011;8948;51.534;8.262;2022-07-06T12:35:12;5.00;;;1.15;;
17658;SDS011;8948;51.534;8.262;2022-07-06T12:40:13;5.55;;;0.98;;
17658;SDS011;8948;51.534;8.262;2022-07-06T12:45:14;4.90;;;0.93;;
17658;SDS011;8948;51.534;8.262;2022-07-06T12:50:15;3.55;;;0.85;;
17658;SDS011;8948;51.534;8.262;2022-07-06T12:55:16;4.80;;;0.90;;
17658;SDS011;8948;51.534;8.262;2022-07-06T13:00:17;4.30;;;0.82;;
17658;SDS011;8948;51.534;8.262;2022-07-06T13:05:18;3.05;;;1.05;;
17658;SDS011;8948;51.534;8.262;2022-07-06T13:10:27;6.47;;;1.20;;
17658;SDS011;8948;51.534;8.262;2022-07-06T13:15:30;3.92;;;1.00;;
17658;SDS011;8948;51.534;8.262;2022-07-06T13:20:32;4.10;;;0.88;;
17658;SDS011;8948;51.534;8.262;2022-07-06T13:25:32;4.50;;;1.15;;
17658;SDS011;8948;51.534;8.262;2022-07-06T13:30:33;3.88;;;1.00;;
17658;SDS011;8948;51.534;8.262;2022-07-06T13:35:33;4.15;;;1.05;;
17658;SDS011;8948;51.534;8.262;2022-07-06T13:40:34;2.25;;;0.90;;
17658;SDS011;8948;51.534;8.262;2022-07-06T13:45:35;2.35;;;0.85;;
17658;SDS011;8948;51.534;8.262;2022-07-06T13:50:37;3.28;;;0.90;;
17658;SDS011;8948;51.534;8.262;2022-07-06T13:55:37;6.30;;;1.10;;
17658;SDS011;8948;51.534;8.262;2022-07-06T14:00:38;3.20;;;0.85;;
17658;SDS011;8948;51.534;8.262;2022-07-06T14:05:39;7.40;;;1.08;;
17658;SDS011;8948;51.534;8.262;2022-07-06T14:10:39;6.38;;;1.00;;
17658;SDS011;8948;51.534;8.262;2022-07-06T14:15:40;5.72;;;0.82;;
17658;SDS011;8948;51.534;8.262;2022-07-06T14:20:40;5.95;;;1.00;;
17658;SDS011;8948;51.534;8.262;2022-07-06T14:25:41;7.20;;;0.98;;
17658;SDS011;8948;51.534;8.262;2022-07-06T14:30:43;17.15;;;1.73;;
17658;SDS011;8948;51.534;8.262;2022-07-06T14:35:46;3.58;;;1.10;;
17658;SDS011;8948;51.534;8.262;2022-07-06T14:40:47;4.68;;;1.08;;
17658;SDS011;8948;51.534;8.262;2022-07-06T14:45:49;4.22;;;0.95;;
17658;SDS011;8948;51.534;8.262;2022-07-06T14:50:50;5.32;;;0.93;;
17658;SDS011;8948;51.534;8.262;2022-07-06T14:55:50;3.33;;;0.88;;
17658;SDS011;8948;51.534;8.262;2022-07-06T15:00:51;2.13;;;0.90;;
17658;SDS011;8948;51.534;8.262;2022-07-06T15:05:52;4.50;;;0.90;;
17658;SDS011;8948;51.534;8.262;2022-07-06T15:10:53;8.52;;;0.98;;
17658;SDS011;8948;51.534;8.262;2022-07-06T15:15:53;4.38;;;0.93;;
17658;SDS011;8948;51.534;8.262;2022-07-06T15:20:54;2.78;;;1.00;;
17658;SDS011;8948;51.534;8.262;2022-07-06T15:25:54;3.00;;;0.85;;
17658;SDS011;8948;51.534;8.262;2022-07-06T15:30:55;3.20;;;1.02;;
17658;SDS011;8948;51.534;8.262;2022-07-06T15:35:56;5.15;;;1.10;;
17658;SDS011;8948;51.534;8.262;2022-07-06T15:40:57;3.10;;;0.85;;
17658;SDS011;8948;51.534;8.262;2022-07-06T15:46:00;5.30;;;1.27;;
17658;SDS011;8948;51.534;8.262;2022-07-06T15:51:02;5.03;;;1.05;;
17658;SDS011;8948;51.534;8.262;2022-07-06T15:56:03;3.00;;;1.30;;
17658;SDS011;8948;51.534;8.262;2022-07-06T16:01:04;7.53;;;1.10;;
17658;SDS011;8948;51.534;8.262;2022-07-06T16:06:05;5.93;;;1.40;;
17658;SDS011;8948;51.534;8.262;2022-07-06T16:11:06;8.60;;;1.10;;
17658;SDS011;8948;51.534;8.262;2022-07-06T16:16:06;5.72;;;1.02;;
17658;SDS011;8948;51.534;8.262;2022-07-06T16:21:07;7.10;;;1.10;;
17658;SDS011;8948;51.534;8.262;2022-07-06T16:26:08;5.63;;;0.95;;
17658;SDS011;8948;51.534;8.262;2022-07-06T16:31:09;4.07;;;1.30;;
17658;SDS011;8948;51.534;8.262;2022-07-06T16:36:09;4.57;;;1.00;;
17658;SDS011;8948;51.534;8.262;2022-07-06T16:41:12;4.85;;;1.00;;
17658;SDS011;8948;51.534;8.262;2022-07-06T16:46:13;5.88;;;0.90;;
17658;SDS011;8948;51.534;8.262;2022-07-06T16:51:14;2.65;;;0.80;;
17658;SDS011;8948;51.534;8.262;2022-07-06T16:56:14;6.95;;;1.48;;
17658;SDS011;8948;51.534;8.262;2022-07-06T17:01:15;6.43;;;1.20;;
17658;SDS011;8948;51.534;8.262;2022-07-06T17:06:16;4.88;;;1.15;;
17658;SDS011;8948;51.534;8.262;2022-07-06T17:11:16;3.88;;;0.73;;
17658;SDS011;8948;51.534;8.262;2022-07-06T17:16:17;6.47;;;0.93;;
17658;SDS011;8948;51.534;8.262;2022-07-06T17:21:18;6.25;;;1.00;;
17658;SDS011;8948;51.534;8.262;2022-07-06T17:26:18;4.20;;;1.40;;
17658;SDS011;8948;51.534;8.262;2022-07-06T17:31:19;4.20;;;1.08;;
17658;SDS011;8948;51.534;8.262;2022-07-06T17:36:20;3.90;;;1.00;;
17658;SDS011;8948;51.534;8.262;2022-07-06T17:41:21;5.63;;;0.90;;
17658;SDS011;8948;51.534;8.262;2022-07-06T17:46:21;5.47;;;1.10;;
17658;SDS011;8948;51.534;8.262;2022-07-06T17:51:22;8.77;;;1.40;;
17658;SDS011;8948;51.534;8.262;2022-07-06T17:56:23;3.03;;;1.10;;
17658;SDS011;8948;51.534;8.262;2022-07-06T18:01:23;4.03;;;1.20;;
17658;SDS011;8948;51.534;8.262;2022-07-06T18:06:24;6.57;;;1.30;;
17658;SDS011;8948;51.534;8.262;2022-07-06T18:11:25;4.88;;;1.10;;
17658;SDS011;8948;51.534;8.262;2022-07-06T18:16:26;4.32;;;1.50;;
17658;SDS011;8948;51.534;8.262;2022-07-06T18:21:27;8.98;;;1.33;;
17658;SDS011;8948;51.534;8.262;2022-07-06T18:26:28;4.35;;;1.13;;
17658;SDS011;8948;51.534;8.262;2022-07-06T18:31:28;8.27;;;1.17;;
17658;SDS011;8948;51.534;8.262;2022-07-06T18:36:29;6.22;;;1.08;;
17658;SDS011;8948;51.534;8.262;2022-07-06T18:41:30;7.82;;;1.13;;
17658;SDS011;8948;51.534;8.262;2022-07-06T18:46:31;2.88;;;1.15;;
17658;SDS011;8948;51.534;8.262;2022-07-06T18:51:32;7.07;;;1.55;;
17658;SDS011;8948;51.534;8.262;2022-07-06T18:56:34;3.13;;;0.85;;
17658;SDS011;8948;51.534;8.262;2022-07-06T19:01:34;3.58;;;1.38;;
17658;SDS011;8948;51.534;8.262;2022-07-06T19:06:35;7.80;;;1.10;;
17658;SDS011;8948;51.534;8.262;2022-07-06T19:11:36;5.40;;;1.10;;
17658;SDS011;8948;51.534;8.262;2022-07-06T19:16:37;6.40;;;1.55;;
17658;SDS011;8948;51.534;8.262;2022-07-06T19:21:38;7.03;;;1.35;;
17658;SDS011;8948;51.534;8.262;2022-07-06T19:26:39;4.50;;;1.20;;
17658;SDS011;8948;51.534;8.262;2022-07-06T19:31:39;6.47;;;1.35;;
17658;SDS011;8948;51.534;8.262;2022-07-06T19:36:40;4.65;;;1.48;;
17658;SDS011;8948;51.534;8.262;2022-07-06T19:41:41;6.20;;;1.52;;
17658;SDS011;8948;51.534;8.262;2022-07-06T19:46:45;7.03;;;1.23;;
17658;SDS011;8948;51.534;8.262;2022-07-06T19:51:46;15.63;;;1.60;;
17658;SDS011;8948;51.534;8.262;2022-07-06T19:56:47;7.05;;;1.23;;
17658;SDS011;8948;51.534;8.262;2022-07-06T20:01:47;5.10;;;1.02;;
17658;SDS011;8948;51.534;8.262;2022-07-06T20:06:48;5.07;;;1.55;;
17658;SDS011;8948;51.534;8.262;2022-07-06T20:11:49;5.57;;;1.40;;
17658;SDS011;8948;51.534;8.262;2022-07-06T20:16:49;6.78;;;1.20;;
17658;SDS011;8948;51.534;8.262;2022-07-06T20:21:52;7.85;;;2.08;;
17658;SDS011;8948;51.534;8.262;2022-07-06T20:26:53;8.93;;;1.25;;
17658;SDS011;8948;51.534;8.262;2022-07-06T20:31:54;7.75;;;1.15;;
17658;SDS011;8948;51.534;8.262;2022-07-06T20:36:54;9.10;;;1.50;;
17658;SDS011;8948;51.534;8.262;2022-07-06T20:41:55;7.13;;;1.35;;
17658;SDS011;8948;51.534;8.262;2022-07-06T20:46:55;3.13;;;0.98;;
17658;SDS011;8948;51.534;8.262;2022-07-06T20:51:56;5.55;;;1.35;;
17658;SDS011;8948;51.534;8.262;2022-07-06T20:56:56;3.78;;;1.27;;
17658;SDS011;8948;51.534;8.262;2022-07-06T21:01:58;5.57;;;1.30;;
17658;SDS011;8948;51.534;8.262;2022-07-06T21:06:59;3.97;;;1.10;;
17658;SDS011;8948;51.534;8.262;2022-07-06T21:11:59;8.00;;;1.58;;
17658;SDS011;8948;51.534;8.262;2022-07-06T21:17:00;6.05;;;1.67;;
17658;SDS011;8948;51.534;8.262;2022-07-06T21:22:01;2.58;;;1.25;;
17658;SDS011;8948;51.534;8.262;2022-07-06T21:27:01;5.20;;;1.25;;
17658;SDS011;8948;51.534;8.262;2022-07-06T21:32:02;3.13;;;1.30;;
17658;SDS011;8948;51.534;8.262;2022-07-06T21:37:03;4.82;;;1.38;;
17658;SDS011;8948;51.534;8.262;2022-07-06T21:42:04;6.03;;;1.45;;
17658;SDS011;8948;51.534;8.262;2022-07-06T21:47:05;7.25;;;1.70;;
17658;SDS011;8948;51.534;8.262;2022-07-06T21:52:06;5.72;;;1.33;;
17658;SDS011;8948;51.534;8.262;2022-07-06T21:57:06;4.82;;;1.40;;
17658;SDS011;8948;51.534;8.262;2022-07-06T22:02:07;5.18;;;1.35;;
17658;SDS011;8948;51.534;8.262;2022-07-06T22:07:08;3.53;;;1.48;;
17658;SDS011;8948;51.534;8.262;2022-07-06T22:12:08;7.13;;;1.40;;
17658;SDS011;8948;51.534;8.262;2022-07-06T22:17:09;2.25;;;1.25;;
17658;SDS011;8948;51.534;8.262;2022-07-06T22:22:10;6.18;;;1.38;;
17658;SDS011;8948;51.534;8.262;2022-07-06T22:27:11;4.65;;;1.20;;
17658;SDS011;8948;51.534;8.262;2022-07-06T22:32:12;3.75;;;1.35;;
17658;SDS011;8948;51.534;8.262;2022-07-06T22:37:12;6.15;;;1.48;;
17658;SDS011;8948;51.534;8.262;2022-07-06T22:42:13;5.00;;;1.50;;
17658;SDS011;8948;51.534;8.262;2022-07-06T22:47:13;5.07;;;1.20;;
17658;SDS011;8948;51.534;8.262;2022-07-06T22:52:14;6.90;;;1.40;;
17658;SDS011;8948;51.534;8.262;2022-07-06T22:57:15;8.55;;;1.33;;
17658;SDS011;8948;51.534;8.262;2022-07-06T23:02:15;10.82;;;1.50;;
17658;SDS011;8948;51.534;8.262;2022-07-06T23:07:16;3.35;;;1.10;;
17658;SDS011;8948;51.534;8.262;2022-07-06T23:12:16;6.53;;;1.60;;
17658;SDS011;8948;51.534;8.262;2022-07-06T23:17:17;4.80;;;1.30;;
17658;SDS011;8948;51.534;8.262;2022-07-06T23:22:18;3.65;;;1.38;;
17658;SDS011;8948;51.534;8.262;2022-07-06T23:27:18;4.88;;;1.33;;
17658;SDS011;8948;51.534;8.262;2022-07-06T23:32:19;4.38;;;1.40;;
17658;SDS011;8948;51.534;8.262;2022-07-06T23:37:19;4.15;;;1.58;;
17658;SDS011;8948;51.534;8.262;2022-07-06T23:42:20;6.95;;;1.38;;
17658;SDS011;8948;51.534;8.262;2022-07-06T23:47:21;9.68;;;1.73;;
17658;SDS011;8948;51.534;8.262;2022-07-06T23:52:21;4.32;;;1.50;;
17658;SDS011;8948;51.534;8.262;2022-07-06T23:57:22;4.47;;;1.27;;
